Time;durP1;ratioP1;P1;durP2;ratioP2;P2;SDS_P1;SDS_P2;PMS_P1;PMS_P2;Temp;Humidity;BMP_temperature;BMP_pressure;BME280_temperature;BME280_humidity;BME280_pressure;Samples;Min_cycle;Max_cycle;Signal;HPM_P1;HPM_P2
2023/05/05 00:00:54;;;;;;;1.88;0.77;;;;;;;0.79;54.82;103258.19;4983362;28;20526;-65
2023/05/05 00:03:22;;;;;;;3.35;0.73;;;;;;;0.78;54.63;103264.13;4975170;28;20065;-65
2023/05/05 00:05:49;;;;;;;5.03;0.88;;;;;;;0.76;55.16;103266.59;4984003;28;20055;-65
2023/05/05 00:08:17;;;;;;;1.30;0.50;;;;;;;0.74;55.52;103262.13;4980861;28;20054;-65
2023/05/05 00:10:45;;;;;;;4.75;0.80;;;;;;;0.72;55.19;103268.91;4978598;28;20050;-65
2023/05/05 00:13:12;;;;;;;1.85;0.85;;;;;;;0.72;55.81;103263.75;4986622;28;20069;-65
2023/05/05 00:15:41;;;;;;;7.80;1.40;;;;;;;0.71;55.53;103270.56;4972002;28;20045;-65
2023/05/05 00:18:08;;;;;;;2.17;0.55;;;;;;;0.70;55.39;103280.75;4979889;28;20102;-65
2023/05/05 00:20:35;;;;;;;3.53;0.70;;;;;;;0.69;55.54;103279.00;4982754;28;20704;-65
2023/05/05 00:23:02;;;;;;;2.55;0.73;;;;;;;0.67;55.47;103282.34;4976413;28;20047;-65
2023/05/05 00:25:30;;;;;;;1.75;0.70;;;;;;;0.66;55.68;103285.72;4982366;28;20050;-65
2023/05/05 00:27:57;;;;;;;1.42;0.60;;;;;;;0.65;55.42;103283.97;4979379;28;20050;-65
2023/05/05 00:30:24;;;;;;;2.08;0.80;;;;;;;0.63;56.50;103280.38;4978857;28;20450;-65
2023/05/05 00:32:51;;;;;;;4.15;0.68;;;;;;;0.62;56.17;103281.16;4979718;28;20054;-65
2023/05/05 00:35:18;;;;;;;4.25;0.63;;;;;;;0.60;55.75;103276.75;4970510;28;20057;-65
2023/05/05 00:37:45;;;;;;;3.40;0.43;;;;;;;0.57;56.10;103277.44;4983244;28;20042;-65
2023/05/05 00:40:13;;;;;;;4.22;1.33;;;;;;;0.56;56.05;103275.63;4981121;28;20726;-65
2023/05/05 00:42:46;;;;;;;6.15;0.68;;;;;;;0.54;55.79;103279.81;4984240;28;20046;-65
2023/05/05 00:45:15;;;;;;;3.53;0.80;;;;;;;0.53;56.32;103275.44;4984686;28;20704;-65
2023/05/05 00:47:43;;;;;;;2.67;0.60;;;;;;;0.50;56.04;103270.13;4984469;28;20053;-65
2023/05/05 00:50:10;;;;;;;3.47;0.90;;;;;;;0.48;56.41;103271.69;4987330;28;20050;-65
2023/05/05 00:52:38;;;;;;;3.97;0.60;;;;;;;0.47;56.36;103272.50;4986583;28;20073;-65
2023/05/05 00:55:06;;;;;;;2.90;0.80;;;;;;;0.46;56.53;103268.16;4987388;28;20122;-65
2023/05/05 00:57:35;;;;;;;4.25;0.85;;;;;;;0.44;56.21;103272.31;4983871;28;20045;-65
2023/05/05 01:00:04;;;;;;;1.23;0.57;;;;;;;0.42;56.38;103273.88;4990363;28;20062;-65
2023/05/05 01:02:31;;;;;;;3.38;0.63;;;;;;;0.40;56.44;103276.38;4988236;28;20050;-65
2023/05/05 01:04:59;;;;;;;2.08;0.47;;;;;;;0.39;57.09;103274.56;4985663;28;20046;-65
2023/05/05 01:07:37;;;;;;;1.48;0.50;;;;;;;0.38;56.46;103279.63;4985311;28;20050;-64
2023/05/05 01:10:10;;;;;;;2.80;0.88;;;;;;;0.37;56.78;103281.34;4988992;28;20054;-65
2023/05/05 01:12:45;;;;;;;6.82;0.60;;;;;;;0.36;56.73;103274.38;4985109;28;20046;-65
2023/05/05 01:15:19;;;;;;;3.95;0.60;;;;;;;0.35;56.47;103271.72;4979266;28;20048;-65
2023/05/05 01:17:54;;;;;;;5.30;0.50;;;;;;;0.33;56.38;103273.31;4986103;28;20057;-65
2023/05/05 01:20:29;;;;;;;2.83;0.70;;;;;;;0.33;57.30;103270.75;4984089;28;20055;-65
2023/05/05 01:23:02;;;;;;;2.35;0.50;;;;;;;0.31;56.48;103274.88;4977295;28;20042;-65
2023/05/05 01:25:55;;;;;;;4.50;0.60;;;;;;;0.28;57.09;103277.25;4983783;28;20046;-65
2023/05/05 01:28:38;;;;;;;5.07;0.47;;;;;;;0.27;56.79;103278.06;4987184;28;20049;-65
2023/05/05 01:31:32;;;;;;;5.30;0.50;;;;;;;0.27;56.81;103285.78;4987860;28;20097;-65
2023/05/05 01:34:04;;;;;;;1.38;0.70;;;;;;;0.24;56.67;103285.59;4986642;28;20046;-65
2023/05/05 01:36:36;;;;;;;3.30;0.50;;;;;;;0.20;56.98;103275.09;4989584;28;20050;-65
2023/05/05 01:39:05;;;;;;;1.00;0.60;;;;;;;0.20;57.22;103285.41;4984140;28;20050;-65
2023/05/05 01:41:41;;;;;;;2.80;0.52;;;;;;;0.19;57.07;103285.28;4987572;28;20042;-65
2023/05/05 01:44:10;;;;;;;3.13;0.68;;;;;;;0.17;57.51;103285.19;4979955;28;20046;-65
2023/05/05 01:46:39;;;;;;;3.55;1.00;;;;;;;0.16;57.07;103285.97;4986997;28;20058;-65
2023/05/05 01:49:08;;;;;;;3.05;0.60;;;;;;;0.15;56.88;103286.78;4980014;28;20058;-65
2023/05/05 01:51:36;;;;;;;1.73;0.70;;;;;;;0.13;57.87;103284.88;4983737;28;20053;-66
2023/05/05 01:54:06;;;;;;;3.65;0.47;;;;;;;0.12;57.72;103294.28;4985511;28;20125;-65
2023/05/05 01:56:35;;;;;;;9.57;1.25;;;;;;;0.11;57.83;103289.91;4985577;28;20046;-64
2023/05/05 01:59:03;;;;;;;1.80;0.70;;;;;;;0.10;57.47;103288.16;4984038;28;20046;-65
2023/05/05 02:01:30;;;;;;;2.50;0.70;;;;;;;0.09;57.70;103291.53;4983802;28;20062;-65
2023/05/05 02:04:00;;;;;;;1.73;0.40;;;;;;;0.08;57.31;103287.16;4984738;28;20150;-65
2023/05/05 02:06:31;;;;;;;1.83;0.73;;;;;;;0.07;57.41;103290.53;4982833;28;20064;-65
2023/05/05 02:08:58;;;;;;;1.13;0.50;;;;;;;0.06;57.22;103292.97;4989436;28;20113;-67
2023/05/05 02:11:28;;;;;;;2.47;0.70;;;;;;;0.05;57.65;103292.09;4988180;28;20064;-67
2023/05/05 02:13:55;;;;;;;1.67;0.75;;;;;;;0.03;57.73;103288.56;4988052;28;20049;-67
2023/05/05 02:16:23;;;;;;;4.15;0.95;;;;;;;0.03;57.55;103288.56;4986670;28;20157;-67
2023/05/05 02:18:50;;;;;;;1.40;0.57;;;;;;;0.00;58.31;103283.22;4988325;28;20053;-67
2023/05/05 02:21:19;;;;;;;6.95;0.60;;;;;;;0.00;58.08;103283.22;4983691;28;20054;-67
2023/05/05 02:23:50;;;;;;;4.10;0.70;;;;;;;-0.01;57.48;103287.44;4987434;28;20050;-67
2023/05/05 02:26:19;;;;;;;1.58;0.65;;;;;;;-0.02;58.27;103284.78;4986053;28;20105;-67
2023/05/05 02:28:48;;;;;;;1.98;0.57;;;;;;;-0.03;58.46;103280.41;4983625;28;20050;-67
2023/05/05 02:31:17;;;;;;;3.17;0.70;;;;;;;-0.04;58.18;103281.22;4988595;28;20046;-67
2023/05/05 02:33:47;;;;;;;4.40;1.65;;;;;;;-0.05;58.31;103284.59;4985139;28;20054;-67
2023/05/05 02:36:19;;;;;;;2.30;0.60;;;;;;;-0.06;58.25;103277.66;4979682;28;20122;-67
2023/05/05 02:38:53;;;;;;;2.10;0.73;;;;;;;-0.07;58.67;103283.59;4983681;28;20054;-67
2023/05/05 02:41:21;;;;;;;2.45;0.85;;;;;;;-0.07;58.34;103291.31;4983989;28;20499;-67
2023/05/05 02:43:50;;;;;;;5.05;0.85;;;;;;;-0.09;58.46;103287.75;4985484;28;20566;-67
2023/05/05 02:46:17;;;;;;;2.90;0.70;;;;;;;-0.09;58.86;103285.16;4987037;28;20038;-67
2023/05/05 02:48:45;;;;;;;2.20;0.60;;;;;;;-0.10;58.93;103294.56;4989032;28;20101;-67
2023/05/05 02:51:12;;;;;;;1.23;0.68;;;;;;;-0.10;58.27;103285.97;4987649;28;20054;-67
2023/05/05 02:53:39;;;;;;;6.35;0.70;;;;;;;-0.11;59.00;103292.78;4983663;28;20733;-67
2023/05/05 02:56:16;;;;;;;1.10;0.50;;;;;;;-0.12;58.47;103288.41;4986538;28;20513;-67
2023/05/05 02:58:51;;;;;;;3.08;0.65;;;;;;;-0.13;58.51;103288.34;4984692;28;20115;-67
2023/05/05 03:01:26;;;;;;;;;;;;;;;-0.16;58.03;103289.03;4990642;28;20054;-75
2023/05/05 03:04:03;;;;;;;2.70;0.75;;;;;;;-0.17;58.44;103294.03;4986223;28;19922;-75
2023/05/05 03:06:36;;;;;;;1.10;0.85;;;;;;;-0.18;58.01;103289.72;4988110;28;20058;-75
2023/05/05 03:09:08;;;;;;;3.47;0.77;;;;;;;-0.18;58.88;103294.84;4985857;28;20053;-74
2023/05/05 03:11:43;;;;;;;5.07;0.68;;;;;;;-0.19;59.27;103299.09;4987450;28;20057;-75
2023/05/05 03:14:13;;;;;;;4.07;0.93;;;;;;;-0.18;58.47;103299.97;4992641;28;20046;-75
2023/05/05 03:16:41;;;;;;;3.97;0.82;;;;;;;-0.19;59.35;103296.53;4990029;28;20414;-75
2023/05/05 03:19:12;;;;;;;3.55;0.75;;;;;;;-0.19;59.30;103299.09;4992775;28;20050;-76
2023/05/05 03:21:40;;;;;;;1.67;0.52;;;;;;;-0.18;59.22;103298.31;4988242;28;20043;-75
2023/05/05 03:24:14;;;;;;;4.75;0.65;;;;;;;-0.17;59.03;103306.88;4991231;28;20050;-75
2023/05/05 03:26:43;;;;;;;1.33;0.70;;;;;;;-0.17;59.18;103304.31;4991127;28;20069;-75
2023/05/05 03:29:10;;;;;;;3.47;0.82;;;;;;;-0.18;59.54;103298.31;4991998;28;20044;-74
2023/05/05 03:31:37;;;;;;;2.85;0.88;;;;;;;-0.17;59.69;103300.09;4991009;28;20054;-75
2023/05/05 03:34:04;;;;;;;2.92;0.88;;;;;;;-0.17;59.14;103299.19;4988157;28;20097;-74
2023/05/05 03:36:32;;;;;;;3.22;0.90;;;;;;;-0.15;59.56;103307.88;4988424;28;20085;-74
2023/05/05 03:38:59;;;;;;;4.07;0.82;;;;;;;-0.14;59.44;103308.00;4990613;28;20545;-75
2023/05/05 03:41:26;;;;;;;4.20;0.90;;;;;;;-0.13;59.64;103308.91;4990840;28;20502;-75
2023/05/05 03:43:55;;;;;;;4.00;0.70;;;;;;;-0.11;60.10;103315.03;4990039;28;20050;-75
2023/05/05 03:46:22;;;;;;;1.80;0.60;;;;;;;-0.10;59.96;103311.66;4986398;28;20043;-75
2023/05/05 03:48:49;;;;;;;2.35;0.85;;;;;;;-0.07;59.57;103311.84;4990157;28;20514;-75
2023/05/05 03:51:16;;;;;;;2.95;0.80;;;;;;;-0.07;59.87;103320.44;4989948;28;20058;-75
2023/05/05 03:53:42;;;;;;;1.15;0.68;;;;;;;-0.03;59.70;103316.41;4989802;28;20069;-75
2023/05/05 03:56:10;;;;;;;4.82;0.90;;;;;;;-0.01;60.08;103307.13;4991932;28;20050;-75
2023/05/05 03:58:36;;;;;;;2.42;0.80;;;;;;;0.02;60.23;103319.28;4991627;28;20046;-75
2023/05/05 04:01:05;;;;;;;4.28;0.88;;;;;;;0.04;60.53;103326.31;4989922;28;20491;-75
2023/05/05 04:03:32;;;;;;;3.20;0.85;;;;;;;0.07;60.70;103316.22;4992394;28;20054;-75
2023/05/05 04:05:59;;;;;;;1.67;0.80;;;;;;;0.10;61.28;103321.56;4988111;28;20049;-74
2023/05/05 04:08:26;;;;;;;5.85;0.88;;;;;;;0.13;61.34;103316.63;4991277;28;20141;-75
2023/05/05 04:10:52;;;;;;;1.92;1.10;;;;;;;0.18;61.11;103325.53;4983107;28;20056;-75
2023/05/05 04:13:19;;;;;;;2.40;0.80;;;;;;;0.22;61.10;103324.91;4986466;28;20054;-75
2023/05/05 04:15:46;;;;;;;5.00;0.80;;;;;;;0.28;61.83;103327.00;4985298;28;20054;-75
2023/05/05 04:18:14;;;;;;;2.08;0.90;;;;;;;0.34;61.56;103329.06;4988161;28;20042;-75
2023/05/05 04:20:41;;;;;;;1.92;0.95;;;;;;;0.39;61.82;103325.13;4990438;28;20061;-75
2023/05/05 04:23:08;;;;;;;4.38;0.90;;;;;;;0.47;61.22;103329.06;4987704;28;20066;-74
2023/05/05 04:25:35;;;;;;;4.38;1.23;;;;;;;0.56;62.06;103324.50;4988799;28;20056;-75
2023/05/05 04:28:02;;;;;;;2.03;0.70;;;;;;;0.65;61.59;103330.25;4990727;28;20649;-75
2023/05/05 04:30:29;;;;;;;4.25;1.13;;;;;;;0.74;62.19;103326.44;4982862;28;20054;-75
2023/05/05 04:32:56;;;;;;;6.22;1.02;;;;;;;0.84;61.97;103328.81;4985113;28;20169;-75
2023/05/05 04:35:24;;;;;;;7.20;1.67;;;;;;;0.94;61.71;103331.19;4990970;28;20048;-75
2023/05/05 04:37:53;;;;;;;2.13;0.52;;;;;;;1.06;61.71;103326.78;4986234;28;20925;-75
2023/05/05 04:40:20;;;;;;;2.80;0.98;;;;;;;1.19;61.74;103332.69;4987563;28;20137;-75
2023/05/05 04:42:47;;;;;;;2.05;0.60;;;;;;;1.30;61.94;103334.22;4986291;28;20560;-75
2023/05/05 04:45:14;;;;;;;7.28;1.67;;;;;;;1.42;62.12;103334.94;4989322;28;20054;-75
2023/05/05 04:47:41;;;;;;;3.08;1.17;;;;;;;1.56;62.36;103335.78;4988280;28;20046;-75
2023/05/05 04:50:08;;;;;;;1.85;0.90;;;;;;;1.71;62.02;103333.25;4987119;28;20089;-75
2023/05/05 04:52:37;;;;;;;1.60;0.90;;;;;;;1.86;62.98;103340.97;4991070;28;20534;-77
2023/05/05 04:55:04;;;;;;;5.30;0.75;;;;;;;2.00;61.99;103335.81;4985975;28;20394;-75
2023/05/05 04:57:31;;;;;;;5.13;0.75;;;;;;;2.16;62.42;103339.25;4990054;28;20058;-75
2023/05/05 04:59:59;;;;;;;4.20;0.88;;;;;;;2.30;61.85;103338.34;4987479;28;20401;-75
2023/05/05 05:02:26;;;;;;;5.40;1.77;;;;;;;2.44;62.14;103346.88;4989415;28;20047;-75
2023/05/05 05:04:53;;;;;;;4.53;0.57;;;;;;;2.57;61.29;103349.34;4988146;28;20529;-76
2023/05/05 05:07:20;;;;;;;4.60;0.70;;;;;;;2.72;61.51;103349.31;4986762;28;20078;-76
2023/05/05 05:09:48;;;;;;;3.47;0.88;;;;;;;2.87;61.49;103350.13;4988533;28;20057;-76
2023/05/05 05:12:15;;;;;;;2.80;0.40;;;;;;;3.00;61.43;103346.53;4986419;28;20038;-75
2023/05/05 05:14:42;;;;;;;1.35;0.80;;;;;;;3.15;60.69;103343.88;4987353;28;20058;-76
2023/05/05 05:17:09;;;;;;;2.40;0.30;;;;;;;3.30;60.17;103342.13;4984118;28;20046;-78
2023/05/05 05:19:36;;;;;;;2.63;0.40;;;;;;;3.44;59.82;103345.41;4987715;28;20495;-76
2023/05/05 05:22:02;;;;;;;2.60;0.20;;;;;;;3.58;58.84;103346.13;4988506;28;20050;-76
2023/05/05 05:24:29;;;;;;;0.68;0.30;;;;;;;3.71;58.82;103345.94;4987190;28;20479;-76
2023/05/05 05:26:58;;;;;;;6.03;2.35;;;;;;;3.85;58.27;103345.78;4987923;28;20060;-76
2023/05/05 05:29:25;;;;;;;3.60;0.30;;;;;;;3.96;58.11;103337.72;4986179;28;20054;-76
2023/05/05 05:31:52;;;;;;;1.02;0.20;;;;;;;4.04;57.68;103335.50;4988643;28;20061;-78
2023/05/05 05:34:19;;;;;;;2.47;0.30;;;;;;;4.15;57.45;103339.50;4986883;28;20146;-76
2023/05/05 05:36:46;;;;;;;0.75;0.20;;;;;;;4.23;57.04;103340.78;4985391;28;20048;-77
2023/05/05 05:39:13;;;;;;;3.22;0.38;;;;;;;4.32;56.91;103342.91;4986080;28;20451;-75
2023/05/05 05:41:40;;;;;;;2.05;0.40;;;;;;;4.39;56.30;103334.66;4980707;28;20050;-77
2023/05/05 05:44:08;;;;;;;0.60;0.47;;;;;;;4.48;54.60;103341.97;4986592;28;20141;-75
2023/05/05 05:46:35;;;;;;;4.97;0.40;;;;;;;4.54;54.56;103339.66;4986396;28;20042;-76
2023/05/05 05:49:02;;;;;;;1.45;0.30;;;;;;;4.59;53.35;103339.91;4989554;28;20525;-75
2023/05/05 05:51:29;;;;;;;0.50;0.30;;;;;;;4.62;53.96;103335.75;4988671;28;20402;-76
2023/05/05 05:53:56;;;;;;;1.23;0.30;;;;;;;4.70;53.61;103341.28;4988130;28;20046;-75
2023/05/05 05:56:23;;;;;;;2.45;0.30;;;;;;;4.72;53.79;103340.56;4985744;28;20053;-75
2023/05/05 05:58:50;;;;;;;3.95;0.80;;;;;;;4.78;53.27;103344.22;4986327;28;20482;-75
2023/05/05 06:01:19;;;;;;;1.17;0.30;;;;;;;4.81;52.15;103350.44;4988335;28;20422;-75
2023/05/05 06:03:46;;;;;;;2.15;0.63;;;;;;;4.84;51.56;103352.28;4987156;28;20050;-75
2023/05/05 06:06:13;;;;;;;0.98;0.20;;;;;;;4.86;51.10;103346.34;4985147;28;20046;-75
2023/05/05 06:08:40;;;;;;;0.73;0.20;;;;;;;4.89;50.85;103350.78;4987466;28;20054;-76
2023/05/05 06:11:07;;;;;;;2.22;0.30;;;;;;;4.91;50.55;103351.75;4988246;28;20089;-75
2023/05/05 06:13:34;;;;;;;0.20;0.20;;;;;;;4.94;49.84;103357.94;4985544;28;20046;-75
2023/05/05 06:16:01;;;;;;;0.43;0.20;;;;;;;4.97;50.04;103357.22;4986767;28;20053;-75
2023/05/05 06:18:29;;;;;;;3.70;0.63;;;;;;;4.99;49.86;103350.41;4981342;28;20043;-75
2023/05/05 06:20:56;;;;;;;3.03;0.20;;;;;;;5.03;49.54;103347.13;4983159;28;20042;-75
2023/05/05 06:23:23;;;;;;;0.20;0.20;;;;;;;5.06;49.82;103342.06;4977083;28;20061;-76
2023/05/05 06:25:52;;;;;;;1.45;0.20;;;;;;;5.08;49.67;103344.75;4982393;28;20053;-75
2023/05/05 06:28:19;;;;;;;3.42;0.22;;;;;;;5.10;48.91;103354.38;4987473;28;20058;-75
2023/05/05 06:30:46;;;;;;;11.95;1.77;;;;;;;5.12;49.18;103347.56;4985037;28;20054;-76
2023/05/05 06:33:13;;;;;;;0.10;0.10;;;;;;;5.13;48.26;103351.91;4986588;28;20728;-76
2023/05/05 06:35:41;;;;;;;0.25;0.10;;;;;;;5.15;47.26;103358.06;4984596;28;20053;-75
2023/05/05 06:38:08;;;;;;;0.73;0.20;;;;;;;5.15;47.18;103350.28;4986291;28;20846;-75
2023/05/05 06:40:35;;;;;;;0.93;0.10;;;;;;;5.17;46.51;103355.53;4987147;28;20053;-76
2023/05/05 06:43:02;;;;;;;0.57;0.28;;;;;;;5.17;46.59;103361.59;4986247;28;20062;-75
2023/05/05 06:45:30;;;;;;;0.17;0.10;;;;;;;5.19;46.54;103361.66;4988748;28;20494;-75
2023/05/05 06:47:56;;;;;;;0.90;0.10;;;;;;;5.21;46.25;103356.53;4987656;28;20953;-75
2023/05/05 06:50:23;;;;;;;0.30;0.10;;;;;;;5.24;45.15;103361.91;4990334;28;20046;-75
2023/05/05 06:52:52;;;;;;;1.95;0.30;;;;;;;5.24;44.84;103362.78;4991448;28;20046;-75
2023/05/05 06:55:19;;;;;;;0.30;0.10;;;;;;;5.27;44.64;103356.84;4990583;28;20057;-75
2023/05/05 06:57:46;;;;;;;2.15;0.17;;;;;;;5.29;43.75;103365.56;4987548;28;20054;-74
2023/05/05 07:00:14;;;;;;;0.57;0.30;;;;;;;5.33;43.28;103364.88;4992107;28;20062;-74
2023/05/05 07:02:41;;;;;;;0.30;0.10;;;;;;;5.39;43.72;103367.75;4990100;28;20042;-74
2023/05/05 07:05:08;;;;;;;0.20;0.10;;;;;;;5.44;44.07;103362.78;4986222;28;20042;-73
2023/05/05 07:07:35;;;;;;;0.40;0.28;;;;;;;5.54;44.05;103359.75;4988587;28;20173;-73
2023/05/05 07:10:04;;;;;;;0.10;0.10;;;;;;;5.66;43.22;103362.00;4988805;28;20463;-75
2023/05/05 07:12:31;;;;;;;0.20;0.20;;;;;;;5.76;44.18;103367.66;4989221;28;20125;-74
2023/05/05 07:14:58;;;;;;;0.40;0.10;;;;;;;5.86;44.20;103363.72;4987628;28;20053;-72
2023/05/05 07:17:25;;;;;;;0.00;0.00;;;;;;;5.97;44.16;103370.28;4989052;28;20528;-72
2023/05/05 07:19:54;;;;;;;0.30;0.17;;;;;;;6.08;44.15;103363.84;4990344;28;20552;-73
2023/05/05 07:22:21;;;;;;;0.63;0.03;;;;;;;6.18;43.86;103356.47;4990704;28;20450;-72
2023/05/05 07:24:48;;;;;;;0.20;0.10;;;;;;;6.26;43.88;103360.22;4989493;28;20050;-71
2023/05/05 07:27:16;;;;;;;0.10;0.10;;;;;;;6.37;42.56;103364.16;4988906;28;20054;-72
2023/05/05 07:29:43;;;;;;;1.70;0.10;;;;;;;6.50;42.67;103358.63;4992389;28;20054;-73
2023/05/05 07:32:10;;;;;;;1.08;0.10;;;;;;;6.68;42.82;103352.38;4986191;28;21260;-73
2023/05/05 07:34:37;;;;;;;0.63;0.10;;;;;;;6.86;42.62;103360.00;4990763;28;20042;-72
2023/05/05 07:37:04;;;;;;;0.17;0.10;;;;;;;6.97;42.60;103351.81;4990327;28;20045;-74
2023/05/05 07:39:31;;;;;;;0.28;0.10;;;;;;;7.05;42.44;103354.66;4985627;28;20061;-75
2023/05/05 07:41:58;;;;;;;0.38;0.10;;;;;;;7.20;41.82;103355.25;4987871;28;20100;-74
2023/05/05 07:44:26;;;;;;;0.70;0.08;;;;;;;7.39;41.45;103361.13;4991360;28;20753;-74
2023/05/05 07:46:53;;;;;;;0.20;0.20;;;;;;;7.52;41.40;103345.13;4989516;28;20434;-76
2023/05/05 07:49:20;;;;;;;1.05;0.10;;;;;;;7.81;40.50;103361.75;4987131;28;20049;-75
2023/05/05 07:51:49;;;;;;;0.32;0.10;;;;;;;7.98;40.64;103356.22;4989942;28;20054;-76
2023/05/05 07:54:15;;;;;;;0.32;0.00;;;;;;;8.14;39.49;103350.72;4990693;28;20053;-76
2023/05/05 07:56:42;;;;;;;0.20;0.00;;;;;;;8.32;39.44;103350.41;4992615;28;20054;-75
2023/05/05 07:59:09;;;;;;;0.10;0.10;;;;;;;8.47;38.79;103355.25;4987188;28;20049;-74
2023/05/05 08:01:38;;;;;;;1.27;0.10;;;;;;;8.59;37.76;103353.03;4990020;28;20471;-75
2023/05/05 08:04:05;;;;;;;0.10;0.10;;;;;;;8.69;37.26;103356.81;4989315;28;20510;-76
2023/05/05 08:06:32;;;;;;;1.48;0.10;;;;;;;8.76;37.17;103354.41;4988528;28;20042;-74
2023/05/05 08:09:00;;;;;;;0.20;0.10;;;;;;;8.82;36.71;103345.91;4987576;28;20046;-74
2023/05/05 08:11:27;;;;;;;1.05;0.20;;;;;;;8.87;36.24;103346.06;4989078;28;20047;-74
2023/05/05 08:13:54;;;;;;;0.70;0.10;;;;;;;8.92;37.10;103344.47;4986517;28;20644;-75
2023/05/05 08:16:21;;;;;;;1.00;0.20;;;;;;;8.93;36.78;103341.91;4989382;28;20042;-76
2023/05/05 08:18:49;;;;;;;0.63;0.10;;;;;;;8.96;37.58;103339.38;4988857;28;20046;-77
2023/05/05 08:21:17;;;;;;;0.82;0.10;;;;;;;8.99;36.69;103346.41;4991653;28;20046;-79
2023/05/05 08:23:44;;;;;;;0.45;0.25;;;;;;;8.99;36.39;103342.09;4989714;28;20557;-78
2023/05/05 08:26:11;;;;;;;0.10;0.10;;;;;;;8.97;36.47;103342.91;4991097;28;20059;-79
2023/05/05 08:28:37;;;;;;;2.22;0.20;;;;;;;8.96;35.94;103344.59;4989076;28;20046;-77
2023/05/05 08:31:05;;;;;;;0.82;0.20;;;;;;;8.97;36.23;103348.09;4990003;28;20195;-79
2023/05/05 08:33:32;;;;;;;0.90;0.20;;;;;;;8.97;35.34;103340.28;4987108;28;20046;-76
2023/05/05 08:36:00;;;;;;;0.05;0.00;;;;;;;8.96;36.91;103339.38;4988719;28;20501;-74
2023/05/05 08:38:27;;;;;;;1.83;0.10;;;;;;;8.97;36.84;103342.91;4988916;28;20046;-76
2023/05/05 08:40:54;;;;;;;0.10;0.10;;;;;;;8.97;35.88;103342.91;4991015;28;20501;-77
2023/05/05 08:43:22;;;;;;;0.63;0.10;;;;;;;8.99;35.93;103341.19;4990032;28;20046;-77
2023/05/05 08:45:51;;;;;;;0.20;0.20;;;;;;;9.00;35.96;103337.75;4990561;28;20459;-78
2023/05/05 08:48:20;;;;;;;0.17;0.10;;;;;;;9.03;36.43;103343.06;4989762;28;20042;-78
2023/05/05 08:50:50;;;;;;;0.30;0.17;;;;;;;9.04;36.69;103344.81;4989204;28;20497;-78
2023/05/05 08:53:29;;;;;;;1.88;0.10;;;;;;;9.07;36.66;103344.03;4989345;28;20046;-78
2023/05/05 08:55:56;;;;;;;0.60;0.30;;;;;;;9.07;36.36;103341.41;4987926;28;20054;-78
2023/05/05 08:58:23;;;;;;;0.20;0.00;;;;;;;9.09;36.67;103347.56;4990717;28;20674;-78
2023/05/05 09:00:51;;;;;;;0.43;0.10;;;;;;;9.09;35.82;103337.16;4990948;28;20410;-78
2023/05/05 09:03:18;;;;;;;1.92;0.13;;;;;;;9.12;35.72;103345.06;4991334;28;20042;-79
2023/05/05 09:05:45;;;;;;;0.30;0.15;;;;;;;9.10;35.82;103339.78;4991119;28;20047;-80
2023/05/05 09:08:12;;;;;;;0.20;0.10;;;;;;;9.13;35.36;103342.47;4990824;28;20046;-79
2023/05/05 09:10:43;;;;;;;0.10;0.10;;;;;;;9.17;36.14;103344.34;4987552;28;20061;-74
2023/05/05 09:13:10;;;;;;;0.32;0.10;;;;;;;9.18;34.91;103335.66;4990884;28;20053;-80
2023/05/05 09:15:37;;;;;;;0.93;0.17;;;;;;;9.16;35.05;103342.59;4990839;28;20038;-78
2023/05/05 09:18:07;;;;;;;0.20;0.10;;;;;;;9.16;35.51;103344.28;4989484;28;20093;-75
2023/05/05 09:20:36;;;;;;;0.20;0.13;;;;;;;9.15;35.42;103337.31;4987088;28;21104;-74
2023/05/05 09:23:12;;;;;;;0.30;0.17;;;;;;;9.15;35.07;103335.59;4989636;28;20050;-81
2023/05/05 09:25:39;;;;;;;0.10;0.10;;;;;;;9.14;35.52;103333.84;4985294;28;20043;-75
2023/05/05 09:28:12;;;;;;;0.90;0.20;;;;;;;9.16;35.26;103337.38;4990145;28;20058;-76
2023/05/05 09:30:41;;;;;;;0.17;0.10;;;;;;;9.15;35.47;103332.09;4986260;28;20703;-73
2023/05/05 09:33:07;;;;;;;0.30;0.10;;;;;;;9.13;36.01;103334.66;4987083;28;20045;-74
2023/05/05 09:35:51;;;;;;;0.45;0.10;;;;;;;9.17;35.96;103331.31;4984669;28;20052;-72
2023/05/05 09:38:18;;;;;;;1.17;0.10;;;;;;;9.22;35.99;103329.72;4986663;28;20050;-73
2023/05/05 09:40:47;;;;;;;0.20;0.10;;;;;;;9.25;35.79;103328.94;4988183;28;20054;-79
2023/05/05 09:43:16;;;;;;;1.67;0.20;;;;;;;9.28;35.64;103330.69;4989462;28;20054;-78
2023/05/05 09:45:43;;;;;;;0.00;0.00;;;;;;;9.28;35.86;103322.88;4987046;28;20050;-78
2023/05/05 09:48:24;;;;;;;0.57;0.52;;;;;;;9.24;35.71;103327.13;4990748;28;20046;-77
2023/05/05 09:50:51;;;;;;;0.05;0.05;;;;;;;9.21;35.37;103337.47;4987925;28;20108;-78
2023/05/05 09:53:18;;;;;;;0.10;0.10;;;;;;;9.19;35.58;103340.06;4988420;28;20046;-75
2023/05/05 09:55:55;;;;;;;0.20;0.10;;;;;;;9.18;35.74;103334.78;4988349;28;20057;-77
2023/05/05 09:58:25;;;;;;;0.52;0.10;;;;;;;9.17;35.34;103328.69;4987515;28;20046;-77
2023/05/05 10:00:53;;;;;;;0.20;0.10;;;;;;;9.16;35.79;103323.44;4988536;28;20139;-75
2023/05/05 10:03:21;;;;;;;0.80;0.10;;;;;;;9.15;35.95;103332.97;4986143;28;20046;-77
2023/05/05 10:05:50;;;;;;;0.10;0.10;;;;;;;9.17;35.45;103336.53;4988299;28;20501;-76
2023/05/05 10:08:18;;;;;;;0.13;0.10;;;;;;;9.15;35.87;103332.97;4989864;28;20050;-75
2023/05/05 10:10:51;;;;;;;0.00;0.00;;;;;;;9.15;35.79;103337.31;4985431;28;20411;-74
2023/05/05 10:13:20;;;;;;;1.45;0.00;;;;;;;9.16;35.83;103339.97;4987252;28;20490;-73
2023/05/05 10:15:50;;;;;;;0.20;0.10;;;;;;;9.17;36.22;103338.25;4987791;28;20722;-76
2023/05/05 10:18:20;;;;;;;0.38;0.10;;;;;;;9.18;35.86;103335.66;4987151;28;20046;-75
2023/05/05 10:20:52;;;;;;;0.10;0.10;;;;;;;9.17;35.74;103341.75;4984398;28;20391;-75
2023/05/05 10:23:20;;;;;;;0.40;0.10;;;;;;;9.13;36.08;103332.03;4987529;28;20050;-73
2023/05/05 10:25:54;;;;;;;1.35;0.20;;;;;;;9.16;36.43;103339.97;4983925;28;20046;-72
2023/05/05 10:28:30;;;;;;;0.10;0.10;;;;;;;9.17;36.57;103339.13;4985269;28;20042;-73
2023/05/05 10:31:01;;;;;;;0.95;0.10;;;;;;;9.18;36.96;103332.19;4986968;28;20584;-73
2023/05/05 10:33:35;;;;;;;0.73;0.20;;;;;;;9.22;37.63;103332.31;4986215;28;20565;-73
2023/05/05 10:36:04;;;;;;;0.10;0.00;;;;;;;9.27;37.37;103331.56;4986466;28;20049;-73
2023/05/05 10:38:32;;;;;;;0.55;0.55;;;;;;;9.25;37.20;103336.75;4986316;28;20799;-73
2023/05/05 10:41:00;;;;;;;0.47;0.10;;;;;;;9.23;36.81;103330.59;4987917;28;20050;-73
2023/05/05 10:43:29;;;;;;;0.10;0.03;;;;;;;9.19;36.51;103337.47;4988764;28;20108;-73
2023/05/05 10:45:58;;;;;;;0.32;0.22;;;;;;;9.15;36.60;103335.59;4986578;28;20050;-73
2023/05/05 10:48:32;;;;;;;0.43;0.15;;;;;;;9.13;36.84;103334.66;4987015;28;20741;-73
2023/05/05 10:51:08;;;;;;;1.50;0.10;;;;;;;9.12;36.67;103332.91;4987123;28;20423;-72
2023/05/05 10:53:44;;;;;;;0.10;0.10;;;;;;;9.13;36.76;103324.22;4987123;28;20307;-72
2023/05/05 10:56:18;;;;;;;0.60;0.00;;;;;;;9.13;36.73;103337.25;4988251;28;20045;-73
2023/05/05 10:58:45;;;;;;;0.75;0.10;;;;;;;9.10;36.62;103334.56;4988027;28;20050;-80
2023/05/05 11:01:29;;;;;;;0.35;0.25;;;;;;;9.05;36.51;103336.19;4985650;28;20053;-82
2023/05/05 11:04:17;;;;;;;0.52;0.10;;;;;;;9.05;36.61;103335.28;4984858;28;20054;-73
2023/05/05 11:07:16;;;;;;;0.52;0.10;;;;;;;9.03;37.18;103334.38;4983820;28;20399;-73
2023/05/05 11:09:55;;;;;;;0.60;0.10;;;;;;;9.01;36.78;103336.91;4983576;28;20057;-75
2023/05/05 11:12:22;;;;;;;0.40;0.10;;;;;;;8.98;37.14;103329.88;4989812;28;20047;-77
2023/05/05 11:15:36;;;;;;;2.45;0.10;;;;;;;8.94;36.39;103327.16;4988320;28;20047;-77
2023/05/05 11:18:05;;;;;;;0.10;0.10;;;;;;;8.85;36.87;103325.19;4984808;28;20050;-76
2023/05/05 11:21:16;;;;;;;0.22;0.17;;;;;;;8.80;36.81;103325.88;4987369;28;20047;-77
2023/05/05 11:23:48;;;;;;;2.20;0.10;;;;;;;8.75;36.14;103329.22;4988669;28;20058;-74
2023/05/05 11:26:17;;;;;;;0.50;0.20;;;;;;;8.72;36.59;103323.91;4985406;28;20054;-74
2023/05/05 11:29:01;;;;;;;0.40;0.10;;;;;;;8.68;36.91;103324.66;4984543;28;20130;-74
2023/05/05 11:31:29;;;;;;;0.10;0.10;;;;;;;8.62;36.88;103319.25;4988404;28;20062;-79
2023/05/05 11:34:28;;;;;;;2.13;0.10;;;;;;;8.59;36.44;103320.88;4987838;28;20038;-75
2023/05/05 11:37:03;;;;;;;0.20;0.10;;;;;;;8.50;36.28;103319.75;4986745;28;20662;-74
2023/05/05 11:39:46;;;;;;;0.40;0.10;;;;;;;8.45;36.58;103323.97;4989342;28;20432;-76
2023/05/05 11:42:30;;;;;;;0.10;0.10;;;;;;;8.41;36.66;103316.00;4989209;28;20060;-76